Time;durP1;ratioP1;P1;durP2;ratioP2;P2;SDS_P1;SDS_P2;PMS_P1;PMS_P2;Temp;Humidity;BMP_temperature;BMP_pressure;BME280_temperature;BME280_humidity;BME280_pressure;Samples;Min_cycle;Max_cycle;Signal;HPM_P1;HPM_P2
2022/11/01 00:00:21;;;;;;;174.15;52.90;;;333.00;2329.60;;;;;;5090423;28;20024;-77
2022/11/01 00:02:46;;;;;;;178.38;56.45;;;333.00;2329.60;;;;;;5092168;28;20511;-76
2022/11/01 00:05:12;;;;;;;242.27;56.53;;;333.00;2329.60;;;;;;5090559;28;20350;-75
2022/11/01 00:07:38;;;;;;;158.82;52.38;;;333.00;2329.60;;;;;;5090424;28;20556;-76
2022/11/01 00:10:04;;;;;;;142.93;46.72;;;333.00;2329.60;;;;;;5090110;28;20469;-76
2022/11/01 00:12:30;;;;;;;154.35;47.67;;;332.90;2329.60;;;;;;5090232;28;20032;-76
2022/11/01 00:14:56;;;;;;;153.63;48.17;;;332.80;2124.80;;;;;;5094125;28;20024;-78
2022/11/01 00:17:22;;;;;;;156.10;50.20;;;332.80;2329.60;;;;;;5093928;28;20028;-75
2022/11/01 00:19:48;;;;;;;144.80;50.80;;;332.80;2329.60;;;;;;5095130;28;20085;-76
2022/11/01 00:22:13;;;;;;;150.00;48.33;;;332.90;2329.60;;;;;;5093177;28;20036;-80
2022/11/01 00:24:39;;;;;;;138.95;47.95;;;332.90;2329.60;;;;;;5093479;28;20123;-76
2022/11/01 00:27:05;;;;;;;142.25;49.67;;;332.90;2329.60;;;;;;5093009;28;20024;-77
2022/11/01 00:29:31;;;;;;;135.60;47.10;;;332.90;2329.60;;;;;;5093812;28;20024;-77
2022/11/01 00:31:56;;;;;;;218.43;50.97;;;332.90;2329.60;;;;;;5093551;28;20105;-76
2022/11/01 00:34:22;;;;;;;165.40;49.08;;;332.90;2176.00;;;;;;5095022;28;20354;-77
2022/11/01 00:36:48;;;;;;;202.43;51.95;;;332.90;2329.60;;;;;;5093161;28;20093;-77
2022/11/01 00:39:14;;;;;;;163.68;49.65;;;332.90;2252.80;;;;;;5094953;28;20020;-77
2022/11/01 00:41:40;;;;;;;179.38;47.78;;;332.90;2329.60;;;;;;5093248;28;20047;-77
2022/11/01 00:44:06;;;;;;;164.90;47.10;;;333.00;2329.60;;;;;;5092073;28;20024;-77
2022/11/01 00:46:32;;;;;;;199.05;48.88;;;332.90;2048.00;;;;;;5093392;28;20077;-77
2022/11/01 00:48:58;;;;;;;196.82;50.58;;;332.90;2252.80;;;;;;5092847;28;20028;-77
2022/11/01 00:51:24;;;;;;;211.35;48.85;;;332.90;2329.60;;;;;;5086449;28;20607;-77
2022/11/01 00:53:50;;;;;;;122.78;42.72;;;332.90;2329.60;;;;;;5093268;28;20048;-76
2022/11/01 00:56:15;;;;;;;192.43;45.08;;;332.90;2329.60;;;;;;5092824;28;20068;-77
2022/11/01 00:58:41;;;;;;;122.90;43.33;;;332.90;2329.60;;;;;;5092552;28;20070;-76
2022/11/01 01:01:07;;;;;;;112.35;38.67;;;332.90;2278.40;;;;;;5092971;28;20059;-77
2022/11/01 01:03:34;;;;;;;106.68;39.13;;;332.90;2329.60;;;;;;5089631;28;20081;-76
2022/11/01 01:06:00;;;;;;;101.43;36.25;;;332.90;2329.60;;;;;;5092828;28;20028;-76
2022/11/01 01:08:26;;;;;;;131.63;36.95;;;332.90;2329.60;;;;;;5090007;28;20028;-77
2022/11/01 01:10:53;;;;;;;118.50;37.22;;;332.90;2329.60;;;;;;5093832;28;20028;-76
2022/11/01 01:13:19;;;;;;;89.30;37.05;;;332.80;2329.60;;;;;;5092658;28;20111;-77
2022/11/01 01:15:44;;;;;;;95.30;37.00;;;332.80;1996.80;;;;;;5092308;28;20047;-77
2022/11/01 01:18:11;;;;;;;83.38;32.22;;;308.10;2304.00;;;;;;5092327;28;20021;-77
2022/11/01 01:20:36;;;;;;;90.88;30.85;;;308.10;2304.00;;;;;;5091604;28;20024;-77
2022/11/01 01:23:02;;;;;;;123.05;33.17;;;308.00;2304.00;;;;;;5075692;28;20492;-78
2022/11/01 01:25:28;;;;;;;125.97;35.90;;;307.90;2304.00;;;;;;5075001;28;20390;-75
2022/11/01 01:27:54;;;;;;;100.18;32.45;;;307.80;2304.00;;;;;;5075347;28;20496;-76
2022/11/01 01:30:20;;;;;;;86.47;33.10;;;307.60;2150.40;;;;;;5075375;28;20088;-76
2022/11/01 01:32:46;;;;;;;95.15;34.90;;;307.80;2304.00;;;;;;5093809;28;20024;-74
2022/11/01 01:35:11;;;;;;;130.65;34.97;;;307.80;2304.00;;;;;;5075335;28;20462;-75
2022/11/01 01:37:37;;;;;;;115.00;35.60;;;307.70;2304.00;;;;;;5090641;28;20032;-75
2022/11/01 01:40:05;;;;;;;81.47;33.88;;;307.70;2304.00;;;;;;5093450;28;20032;-76
2022/11/01 01:42:37;;;;;;;106.03;34.00;;;307.70;2304.00;;;;;;5075028;28;20030;-76
2022/11/01 01:45:28;;;;;;;155.55;38.35;;;307.80;2304.00;;;;;;5074945;28;20024;-77
2022/11/01 01:47:57;;;;;;;91.35;35.65;;;307.80;2304.00;;;;;;5091726;28;20031;-76
2022/11/01 01:50:31;;;;;;;138.73;38.72;;;307.90;2304.00;;;;;;5074740;28;20027;-76
2022/11/01 01:53:29;;;;;;;109.32;35.30;;;307.80;2304.00;;;;;;5093496;28;20020;-77
2022/11/01 01:56:31;;;;;;;104.80;36.20;;;307.80;2304.00;;;;;;5082006;28;20043;-75
2022/11/01 01:59:02;;;;;;;164.77;38.97;;;307.80;2304.00;;;;;;5031228;28;20044;-77
2022/11/01 02:01:28;;;;;;;127.07;37.88;;;307.80;2227.20;;;;;;5025027;28;20036;-76
2022/11/01 02:03:55;;;;;;;93.03;37.17;;;307.80;2304.00;;;;;;5030673;28;20034;-74
2022/11/01 02:06:22;;;;;;;137.20;38.70;;;307.90;2304.00;;;;;;5018966;28;20029;-75
2022/11/01 02:08:56;;;;;;;146.80;36.58;;;307.90;2304.00;;;;;;5013762;28;20080;-77
2022/11/01 02:11:22;;;;;;;142.07;36.15;;;307.80;2304.00;;;;;;5024695;28;20061;-76
2022/11/01 02:13:48;;;;;;;123.47;37.45;;;307.80;2304.00;;;;;;5022810;28;20061;-76
2022/11/01 02:16:50;;;;;;;89.03;36.03;;;307.80;2304.00;;;;;;5021638;28;20045;-77
2022/11/01 02:19:25;;;;;;;172.50;39.72;;;307.80;2304.00;;;;;;4955336;28;20031;-77
2022/11/01 02:22:29;;;;;;;176.30;38.42;;;307.80;2304.00;;;;;;4971511;28;20612;-77
2022/11/01 02:25:18;;;;;;;138.35;38.22;;;307.70;2304.00;;;;;;4934719;29;20113;-77
2022/11/01 02:27:55;;;;;;;104.88;34.53;;;307.60;2304.00;;;;;;4930799;29;20039;-77
2022/11/01 02:30:22;;;;;;;92.80;33.72;;;307.60;2304.00;;;;;;4919934;29;20425;-77
2022/11/01 02:33:00;;;;;;;106.07;34.35;;;307.60;2304.00;;;;;;4923635;29;20476;-77
2022/11/01 02:35:32;;;;;;;114.00;34.85;;;307.60;2304.00;;;;;;4960581;28;20031;-78
2022/11/01 02:37:58;;;;;;;69.07;30.08;;;307.60;2304.00;;;;;;4941357;28;20023;-76
2022/11/01 02:40:39;;;;;;;107.53;32.20;;;307.70;2304.00;;;;;;4958431;28;20036;-77
2022/11/01 02:43:14;;;;;;;76.55;28.80;;;307.60;2304.00;;;;;;4934666;28;20027;-76
2022/11/01 02:45:45;;;;;;;84.75;29.80;;;307.70;2304.00;;;;;;4957299;28;20019;-77
2022/11/01 02:48:10;;;;;;;79.30;28.77;;;307.70;2304.00;;;;;;4951718;28;20080;-76
2022/11/01 02:50:44;;;;;;;109.10;27.38;;;307.80;2304.00;;;;;;4935746;28;20079;-77
2022/11/01 02:53:11;;;;;;;54.60;28.15;;;307.80;1945.60;;;;;;4942105;28;20110;-77
2022/11/01 02:55:37;;;;;;;69.00;28.35;;;307.80;2176.00;;;;;;4973481;28;20034;-76
2022/11/01 02:58:23;;;;;;;67.70;27.77;;;307.80;2124.80;;;;;;4974100;28;20022;-76
2022/11/01 03:00:49;;;;;;;73.38;26.85;;;307.80;2304.00;;;;;;5001925;28;20971;-76
2022/11/01 03:03:30;;;;;;;62.95;25.88;;;307.80;2304.00;;;;;;5090625;28;20105;-76
2022/11/01 03:06:26;;;;;;;55.85;26.92;;;307.80;2304.00;;;;;;5088688;28;20032;-77
2022/11/01 03:08:58;;;;;;;67.80;26.48;;;307.70;2304.00;;;;;;5077034;28;20027;-76
2022/11/01 03:11:45;;;;;;;73.40;29.65;;;307.60;1920.00;;;;;;5091801;28;20028;-76
2022/11/01 03:14:20;;;;;;;75.47;27.70;;;307.70;2304.00;;;;;;5091641;28;20024;-78
2022/11/01 03:17:10;;;;;;;65.65;28.10;;;307.80;2304.00;;;;;;5089290;28;20016;-76
2022/11/01 03:19:55;;;;;;;50.75;27.30;;;307.90;2304.00;;;;;;5073725;28;20082;-76
2022/11/01 03:22:42;;;;;;;65.45;26.67;;;307.80;2201.60;;;;;;5091140;28;20026;-76
2022/11/01 03:25:41;;;;;;;127.35;29.40;;;307.90;1996.80;;;;;;5073431;28;20024;-76
2022/11/01 03:28:42;;;;;;;67.05;26.25;;;307.60;2304.00;;;;;;5089070;28;20027;-76
2022/11/01 03:31:12;;;;;;;59.15;24.85;;;307.60;2201.60;;;;;;4990719;28;20461;-78
2022/11/01 03:33:42;;;;;;;92.32;26.08;;;307.60;2201.60;;;;;;5009829;28;20038;-76
2022/11/01 03:36:13;;;;;;;52.28;24.67;;;307.60;2304.00;;;;;;5009673;28;20029;-75
2022/11/01 03:38:42;;;;;;;59.05;25.40;;;307.50;2304.00;;;;;;4993384;28;20026;-76
2022/11/01 03:41:13;;;;;;;42.08;23.15;;;307.50;2304.00;;;;;;5009396;28;20045;-76
2022/11/01 03:43:40;;;;;;;80.20;23.80;;;307.60;2304.00;;;;;;4992439;28;20034;-75
2022/11/01 03:46:07;;;;;;;101.07;23.23;;;307.50;2304.00;;;;;;5009534;28;20029;-75
2022/11/01 03:48:33;;;;;;;44.88;20.75;;;307.30;2304.00;;;;;;4997138;28;20034;-75
2022/11/01 03:50:59;;;;;;;76.53;21.95;;;307.30;1996.80;;;;;;4991797;28;20519;-75
2022/11/01 03:53:24;;;;;;;;;;;307.30;1971.20;;;;;;5013723;28;20520;-76
2022/11/01 03:55:50;;;;;;;77.68;21.83;;;307.30;2176.00;;;;;;5013839;28;20307;-75
2022/11/01 03:58:16;;;;;;;44.03;21.83;;;307.30;2048.00;;;;;;4994255;28;20034;-78
2022/11/01 04:00:44;;;;;;;45.78;22.95;;;307.30;2099.20;;;;;;5013380;28;20034;-75
2022/11/01 04:03:11;;;;;;;47.30;23.98;;;307.30;2304.00;;;;;;5013395;28;20026;-78
2022/11/01 04:05:39;;;;;;;67.72;24.95;;;307.30;2304.00;;;;;;4996388;28;20108;-76
2022/11/01 04:08:06;;;;;;;77.35;24.60;;;307.40;2304.00;;;;;;5094903;28;20018;-74
2022/11/01 04:10:32;;;;;;;82.47;25.23;;;307.30;2304.00;;;;;;5093275;28;20043;-75
2022/11/01 04:12:58;;;;;;;86.85;26.05;;;307.30;2304.00;;;;;;5093530;28;20044;-76
2022/11/01 04:21:00;;;;;;;58.88;22.85;;;307.20;2304.00;;;;;;5095104;28;20039;-78
2022/11/01 04:23:25;;;;;;;99.85;26.02;;;282.50;2278.40;;;;;;5093628;28;20036;-77
2022/11/01 04:25:51;;;;;;;97.13;24.85;;;282.50;2278.40;;;;;;5093791;28;20075;-75
2022/11/01 04:28:17;;;;;;;91.07;24.80;;;282.40;2278.40;;;;;;5094594;28;20644;-75
2022/11/01 04:30:42;;;;;;;84.88;23.95;;;282.30;2278.40;;;;;;5095135;28;20034;-78
2022/11/01 04:33:09;;;;;;;57.70;20.30;;;282.30;2278.40;;;;;;5094539;28;20028;-74
2022/11/01 04:35:36;;;;;;;71.15;21.42;;;282.20;2278.40;;;;;;5093316;28;20389;-75
2022/11/01 04:38:03;;;;;;;42.53;19.35;;;282.10;2278.40;;;;;;5093884;28;20556;-77
2022/11/01 04:40:29;;;;;;;53.20;21.02;;;282.20;2278.40;;;;;;5094141;28;20043;-74
2022/11/01 04:42:55;;;;;;;61.38;18.85;;;282.20;2278.40;;;;;;5094559;28;20453;-75
2022/11/01 04:45:21;;;;;;;54.80;17.52;;;282.20;2278.40;;;;;;5093526;28;20039;-75
2022/11/01 04:47:51;;;;;;;43.28;17.52;;;282.10;2278.40;;;;;;5093309;28;20467;-75
2022/11/01 04:50:19;;;;;;;33.80;18.73;;;282.10;2278.40;;;;;;5092231;28;20055;-75
2022/11/01 04:52:46;;;;;;;56.45;19.70;;;282.10;2278.40;;;;;;5094850;28;20024;-74
2022/11/01 04:55:12;;;;;;;64.13;21.52;;;282.10;2278.40;;;;;;5091553;28;20492;-74
2022/11/01 04:57:42;;;;;;;48.65;20.38;;;282.20;2278.40;;;;;;5092345;28;20040;-75
2022/11/01 05:00:10;;;;;;;66.85;21.92;;;282.20;2278.40;;;;;;5092826;28;20024;-75
2022/11/01 05:02:37;;;;;;;87.72;21.80;;;282.20;2278.40;;;;;;5094530;28;20037;-78
2022/11/01 05:05:05;;;;;;;70.68;21.80;;;282.10;2278.40;;;;;;5093318;28;20027;-78
2022/11/01 05:07:30;;;;;;;77.60;22.30;;;282.00;2278.40;;;;;;5094107;28;20456;-78
2022/11/01 05:09:56;;;;;;;56.78;22.42;;;281.90;2278.40;;;;;;5094361;28;20104;-79
2022/11/01 05:12:22;;;;;;;82.80;22.77;;;282.00;2278.40;;;;;;5093889;28;20111;-75
2022/11/01 05:14:47;;;;;;;;;;;281.90;2278.40;;;;;;5092804;28;20028;-75
2022/11/01 05:17:13;;;;;;;57.00;22.00;;;282.00;2278.40;;;;;;5092600;28;19986;-75
2022/11/01 05:19:39;;;;;;;73.10;24.05;;;282.10;1894.40;;;;;;5092228;28;20032;-76
2022/11/01 05:22:05;;;;;;;48.22;22.30;;;282.10;2278.40;;;;;;5092941;28;20121;-79
2022/11/01 05:24:30;;;;;;;67.75;24.23;;;282.20;2150.40;;;;;;5093624;28;20099;-75
2022/11/01 05:26:56;;;;;;;64.78;23.67;;;282.20;2278.40;;;;;;5092501;28;20040;-78
2022/11/01 05:29:22;;;;;;;83.15;27.33;;;282.20;2278.40;;;;;;5093125;28;20024;-77
2022/11/01 05:31:48;;;;;;;101.90;27.40;;;282.20;2278.40;;;;;;5092645;28;20063;-75
2022/11/01 05:34:13;;;;;;;;;;;282.10;2278.40;;;;;;5091931;28;20027;-77
2022/11/01 05:36:39;;;;;;;85.07;25.77;;;282.10;2278.40;;;;;;5092584;28;20246;-74
2022/11/01 05:39:04;;;;;;;;;;;282.10;2278.40;;;;;;5092779;28;20035;-75
2022/11/01 05:41:30;;;;;;;78.30;27.15;;;282.10;2278.40;;;;;;5093137;28;19973;-76
2022/11/01 05:43:56;;;;;;;73.03;29.40;;;282.10;2278.40;;;;;;5093406;28;20032;-76
2022/11/01 05:46:21;;;;;;;85.82;28.67;;;282.20;2278.40;;;;;;5092347;28;20149;-78
2022/11/01 05:48:47;;;;;;;111.78;30.50;;;282.30;2278.40;;;;;;5094257;28;20035;-75
2022/11/01 05:51:13;;;;;;;115.53;30.85;;;282.40;2278.40;;;;;;5087121;28;20052;-78
2022/11/01 05:53:39;;;;;;;108.05;30.42;;;282.40;2278.40;;;;;;5089701;28;20039;-77
2022/11/01 05:56:04;;;;;;;85.03;30.35;;;282.30;2278.40;;;;;;5092900;28;20028;-78
2022/11/01 05:58:30;;;;;;;81.20;30.58;;;282.30;2278.40;;;;;;5092840;28;20540;-78
2022/11/01 06:00:57;;;;;;;;;;;282.20;2278.40;;;;;;5091993;28;20542;-75
2022/11/01 06:03:23;;;;;;;72.40;24.33;;;282.20;2278.40;;;;;;5094041;28;19947;-78
2022/11/01 06:05:48;;;;;;;107.22;32.33;;;282.20;2278.40;;;;;;5092871;28;20028;-79
2022/11/01 06:08:14;;;;;;;;;;;282.20;2278.40;;;;;;5093760;28;20074;-80
2022/11/01 06:10:40;;;;;;;97.30;31.33;;;282.10;2278.40;;;;;;5091461;28;20353;-78
2022/11/01 06:13:07;;;;;;;95.35;31.40;;;282.00;2278.40;;;;;;5092972;28;20024;-78
2022/11/01 06:15:33;;;;;;;98.38;31.50;;;281.90;2278.40;;;;;;5092631;28;20028;-81
2022/11/01 06:17:59;;;;;;;111.68;30.65;;;282.10;2278.40;;;;;;5092692;28;20093;-78
2022/11/01 06:20:29;;;;;;;90.80;29.63;;;282.10;2278.40;;;;;;5090427;28;20024;-79
2022/11/01 06:22:56;;;;;;;90.10;30.83;;;282.00;2278.40;;;;;;5081389;28;20114;-80
2022/11/01 06:25:22;;;;;;;131.82;33.97;;;281.90;2278.40;;;;;;5074832;28;20020;-76
2022/11/01 06:27:48;;;;;;;120.20;34.63;;;281.90;2278.40;;;;;;5075569;28;20085;-77
2022/11/01 06:30:14;;;;;;;84.43;31.50;;;282.00;2278.40;;;;;;5073061;28;20035;-79
2022/11/01 06:32:40;;;;;;;73.95;31.63;;;282.10;2278.40;;;;;;5092219;28;20035;-78
2022/11/01 06:35:06;;;;;;;97.07;33.17;;;282.30;2278.40;;;;;;5092414;28;20032;-79
2022/11/01 06:37:32;;;;;;;135.20;33.25;;;282.40;2278.40;;;;;;5063223;28;20032;-75
2022/11/01 06:39:57;;;;;;;136.40;34.95;;;282.40;2278.40;;;;;;5072389;28;20036;-75
2022/11/01 06:42:23;;;;;;;;;;;282.40;2278.40;;;;;;5071420;28;20032;-74
2022/11/01 06:44:49;;;;;;;136.80;33.70;;;282.40;2278.40;;;;;;5088063;28;19908;-75
2022/11/01 06:47:14;;;;;;;166.85;36.38;;;282.30;2278.40;;;;;;5093295;28;20087;-78
2022/11/01 06:49:40;;;;;;;131.88;32.80;;;282.40;2278.40;;;;;;5092772;28;20405;-76
2022/11/01 06:52:06;;;;;;;76.00;34.88;;;282.40;2278.40;;;;;;5074912;28;20071;-78
2022/11/01 06:54:32;;;;;;;80.28;34.22;;;282.50;2278.40;;;;;;5074614;28;20469;-75
2022/11/01 06:56:58;;;;;;;94.85;35.28;;;282.50;2278.40;;;;;;5092609;28;20063;-77
2022/11/01 06:59:24;;;;;;;110.15;37.78;;;282.50;2278.40;;;;;;5092554;28;20026;-78
2022/11/01 07:01:51;;;;;;;101.15;36.50;;;307.20;2304.00;;;;;;5092896;28;20024;-79
2022/11/01 07:04:17;;;;;;;91.85;37.92;;;282.50;2278.40;;;;;;5074693;28;20500;-79
2022/11/01 07:06:44;;;;;;;89.65;35.80;;;307.70;2304.00;;;;;;5074798;28;20020;-78
2022/11/01 07:09:10;;;;;;;91.78;38.83;;;307.30;2304.00;;;;;;5074892;28;20142;-78
2022/11/01 07:11:35;;;;;;;88.38;39.63;;;307.40;2304.00;;;;;;5073437;28;20135;-77
2022/11/01 07:14:02;;;;;;;111.53;40.08;;;307.50;2304.00;;;;;;5074494;28;20024;-80
2022/11/01 07:16:27;;;;;;;104.35;39.58;;;307.50;2304.00;;;;;;5074465;28;20494;-75
2022/11/01 07:18:53;;;;;;;91.47;41.20;;;307.40;2304.00;;;;;;5092701;28;20102;-78
2022/11/01 07:21:19;;;;;;;90.28;42.35;;;307.50;2304.00;;;;;;5074026;28;20033;-78
2022/11/01 07:23:45;;;;;;;94.93;43.70;;;307.50;2304.00;;;;;;5074568;28;20107;-79
2022/11/01 07:26:11;;;;;;;108.70;46.72;;;307.50;2304.00;;;;;;5074300;28;20143;-77
2022/11/01 07:28:38;;;;;;;98.45;45.38;;;307.50;2304.00;;;;;;5074402;28;20032;-77
2022/11/01 07:31:05;;;;;;;103.22;48.08;;;307.60;2304.00;;;;;;5074100;28;20469;-79
2022/11/01 07:33:30;;;;;;;96.30;51.22;;;307.60;2304.00;;;;;;5074403;28;20040;-79
2022/11/01 07:35:56;;;;;;;97.57;52.75;;;307.80;2304.00;;;;;;5092509;28;20078;-78
2022/11/01 07:38:22;;;;;;;106.65;54.90;;;307.80;2304.00;;;;;;5074053;28;20029;-77
2022/11/01 07:40:49;;;;;;;111.50;54.28;;;307.70;2304.00;;;;;;5074081;28;20131;-78
2022/11/01 07:43:17;;;;;;;119.43;53.88;;;307.80;2304.00;;;;;;5074204;28;20048;-78
2022/11/01 07:45:43;;;;;;;116.25;58.35;;;307.80;2304.00;;;;;;5074679;28;20086;-79
2022/11/01 07:48:14;;;;;;;117.05;58.08;;;307.80;2304.00;;;;;;5073637;28;20032;-78
2022/11/01 07:50:41;;;;;;;120.07;62.60;;;307.90;2304.00;;;;;;5074601;28;20040;-78
2022/11/01 07:53:12;;;;;;;113.40;59.78;;;307.90;2304.00;;;;;;5092097;28;20024;-78
2022/11/01 07:55:38;;;;;;;130.00;65.43;;;308.00;2304.00;;;;;;5070330;28;20028;-77
2022/11/01 07:58:05;;;;;;;129.65;63.38;;;308.10;2304.00;;;;;;5066206;28;20016;-76
2022/11/01 08:00:32;;;;;;;112.00;63.97;;;332.80;2329.60;;;;;;5073010;28;20533;-76
2022/11/01 08:03:02;;;;;;;121.18;67.70;;;332.90;2329.60;;;;;;5092215;28;20028;-76
2022/11/01 08:05:28;;;;;;;116.07;65.68;;;332.90;2329.60;;;;;;5073907;28;20035;-77
2022/11/01 08:07:54;;;;;;;103.30;60.03;;;332.90;2329.60;;;;;;5074078;28;20036;-78
2022/11/01 08:10:20;;;;;;;110.82;62.33;;;332.90;2329.60;;;;;;5073341;28;20028;-78
2022/11/01 08:12:46;;;;;;;102.75;61.90;;;333.00;2329.60;;;;;;5074129;28;20028;-78
2022/11/01 08:15:12;;;;;;;105.90;62.90;;;333.10;2329.60;;;;;;5073658;28;20031;-77
2022/11/01 08:17:37;;;;;;;99.07;61.30;;;333.10;2329.60;;;;;;5091154;28;20043;-77
2022/11/01 08:20:05;;;;;;;102.60;62.03;;;333.20;2329.60;;;;;;5074082;28;20033;-77
2022/11/01 08:22:31;;;;;;;114.15;65.35;;;333.00;2329.60;;;;;;5091425;28;20031;-75
2022/11/01 08:24:57;;;;;;;109.95;67.43;;;333.40;2329.60;;;;;;5091959;28;20054;-78
2022/11/01 08:27:22;;;;;;;113.00;75.53;;;333.50;2329.60;;;;;;5073374;28;20035;-78
2022/11/01 08:29:48;;;;;;;109.03;70.85;;;333.50;2329.60;;;;;;5091626;28;20020;-77
2022/11/01 08:32:18;;;;;;;120.88;76.95;;;333.60;2329.60;;;;;;5091334;28;20032;-76
2022/11/01 08:34:43;;;;;;;115.05;74.82;;;333.60;2329.60;;;;;;5080360;28;20113;-77
2022/11/01 08:37:09;;;;;;;107.30;72.22;;;333.70;2329.60;;;;;;5077637;28;20031;-78
2022/11/01 08:39:35;;;;;;;110.50;75.18;;;358.40;2329.60;;;;;;5076466;28;20032;-79
2022/11/01 08:42:00;;;;;;;112.53;80.90;;;358.50;2329.60;;;;;;5076779;28;20044;-79
2022/11/01 08:44:26;;;;;;;128.85;87.45;;;358.70;2329.60;;;;;;5077266;28;20024;-77
2022/11/01 08:46:53;;;;;;;121.68;86.80;;;358.80;2329.60;;;;;;5077434;28;20048;-75
2022/11/01 08:49:19;;;;;;;131.13;82.32;;;359.00;2329.60;;;;;;5077261;28;20020;-76
2022/11/01 08:51:45;;;;;;;118.15;82.82;;;359.00;2329.60;;;;;;5076704;28;20055;-79
2022/11/01 08:54:11;;;;;;;119.78;84.50;;;359.10;2329.60;;;;;;5081274;28;20032;-77
2022/11/01 08:56:36;;;;;;;118.63;81.22;;;384.00;2329.60;;;;;;5076717;28;20036;-78
2022/11/01 08:59:02;;;;;;;106.60;75.40;;;384.20;2329.60;;;;;;5077208;28;20019;-80
2022/11/01 09:01:28;;;;;;;106.82;73.32;;;384.40;2329.60;;;;;;5077160;28;20028;-78
2022/11/01 09:03:57;;;;;;;90.18;60.85;;;384.60;2329.60;;;;;;5095079;28;20017;-77
2022/11/01 09:06:23;;;;;;;84.03;57.90;;;384.70;2329.60;;;;;;5076586;28;20032;-79
2022/11/01 09:08:49;;;;;;;79.45;53.00;;;384.90;2329.60;;;;;;5076891;28;20027;-78
2022/11/01 09:11:16;;;;;;;71.10;45.08;;;409.70;2355.20;;;;;;5076489;28;20032;-77
2022/11/01 09:13:41;;;;;;;60.60;42.90;;;409.90;2355.20;;;;;;5075973;28;20081;-77
2022/11/01 09:16:07;;;;;;;63.42;43.22;;;410.10;2355.20;;;;;;5076493;28;20032;-78
2022/11/01 09:18:33;;;;;;;55.17;41.15;;;410.30;2355.20;;;;;;5076612;28;20024;-78
2022/11/01 09:20:59;;;;;;;64.97;39.70;;;410.50;2355.20;;;;;;5075836;28;20023;-77
2022/11/01 09:23:26;;;;;;;55.92;41.30;;;435.30;2355.20;;;;;;5076176;28;20409;-76
2022/11/01 09:25:51;;;;;;;55.15;38.78;;;435.50;2355.20;;;;;;5094192;28;20097;-78
2022/11/01 09:28:17;;;;;;;57.15;40.55;;;435.60;2355.20;;;;;;5075922;28;20059;-78
2022/11/01 09:30:44;;;;;;;59.42;38.55;;;435.70;2355.20;;;;;;5059311;28;20024;-78
2022/11/01 09:33:10;;;;;;;56.72;39.10;;;435.70;2355.20;;;;;;5075768;28;20032;-77
2022/11/01 09:35:35;;;;;;;55.35;37.95;;;436.00;2355.20;;;;;;5094551;28;20389;-75
2022/11/01 09:38:02;;;;;;;55.63;38.83;;;436.10;2355.20;;;;;;5094236;28;20024;-77
2022/11/01 09:40:36;;;;;;;51.83;37.83;;;461.00;2380.80;;;;;;5075512;28;20048;-76
2022/11/01 09:43:08;;;;;;;56.13;38.85;;;461.00;2380.80;;;;;;5075627;28;20443;-75
2022/11/01 09:45:35;;;;;;;55.08;39.90;;;461.00;2380.80;;;;;;5075844;28;20024;-77
2022/11/01 09:48:04;;;;;;;48.95;37.28;;;461.20;2380.80;;;;;;5093355;28;20043;-77
2022/11/01 09:50:33;;;;;;;56.00;39.80;;;461.50;2380.80;;;;;;5093302;28;20021;-78
2022/11/01 09:53:01;;;;;;;54.78;37.38;;;461.70;2380.80;;;;;;5094107;28;20115;-77
2022/11/01 09:55:49;;;;;;;52.30;38.78;;;486.40;2380.80;;;;;;5075764;28;20022;-76
2022/11/01 09:58:50;;;;;;;52.10;38.67;;;486.70;2380.80;;;;;;5094148;28;20103;-78
2022/11/01 10:01:34;;;;;;;54.35;37.30;;;486.60;2380.80;;;;;;5094131;28;20042;-77
2022/11/01 10:04:08;;;;;;;49.45;37.38;;;486.90;2380.80;;;;;;5075613;28;20012;-77
2022/11/01 10:06:57;;;;;;;63.72;40.20;;;487.00;2380.80;;;;;;5075391;28;20024;-77
2022/11/01 10:09:44;;;;;;;56.35;39.53;;;487.20;2380.80;;;;;;5073353;28;20366;-78
2022/11/01 10:12:38;;;;;;;58.95;39.50;;;487.30;2380.80;;;;;;5089921;28;20036;-75
2022/11/01 10:15:25;;;;;;;52.72;38.60;;;512.10;2380.80;;;;;;5075009;28;20035;-76
2022/11/01 10:17:54;;;;;;;56.97;38.97;;;512.50;2380.80;;;;;;5093290;28;20055;-79
2022/11/01 10:20:24;;;;;;;60.03;40.50;;;512.70;2380.80;;;;;;5075205;28;20425;-78
2022/11/01 10:22:50;;;;;;;61.08;40.78;;;512.90;2380.80;;;;;;5071801;28;20071;-76
2022/11/01 10:25:32;;;;;;;59.05;41.33;;;537.60;2406.40;;;;;;5066848;28;20056;-77
2022/11/01 10:28:03;;;;;;;57.30;41.58;;;537.60;2406.40;;;;;;5074861;28;20034;-75
2022/11/01 10:30:36;;;;;;;52.92;40.15;;;538.00;2406.40;;;;;;5073759;28;20036;-75
2022/11/01 10:33:25;;;;;;;57.33;39.53;;;538.10;2406.40;;;;;;5079256;28;20035;-76
2022/11/01 10:36:25;;;;;;;59.05;42.55;;;538.40;2406.40;;;;;;5074428;28;20031;-81
2022/11/01 10:39:14;;;;;;;56.33;41.30;;;538.30;2406.40;;;;;;5074337;28;20105;-80
2022/11/01 10:41:50;;;;;;;61.10;43.45;;;538.50;2406.40;;;;;;5075220;28;20127;-81
2022/11/01 10:44:26;;;;;;;55.20;40.10;;;;;;;;;;5075452;28;20031;-81
2022/11/01 10:46:53;;;;;;;61.92;41.15;;;563.40;2432.00;;;;;;5075495;28;20107;-82
2022/11/01 10:49:25;;;;;;;56.13;39.22;;;563.60;2432.00;;;;;;5075386;28;20051;-78
2022/11/01 10:51:57;;;;;;;57.85;38.47;;;;;;;;;;5093108;28;20105;-78
2022/11/01 10:54:26;;;;;;;59.08;40.08;;;563.90;2432.00;;;;;;5075312;28;20135;-79
2022/11/01 10:56:54;;;;;;;60.13;41.15;;;564.10;2355.20;;;;;;5074437;28;20031;-82
2022/11/01 10:59:23;;;;;;;57.28;40.55;;;564.10;2329.60;;;;;;5075384;28;20477;-82
2022/11/01 11:01:51;;;;;;;60.05;41.22;;;588.80;2329.60;;;;;;5092873;28;20063;-79
2022/11/01 11:04:21;;;;;;;57.00;40.20;;;588.80;2329.60;;;;;;5075432;28;20068;-82
2022/11/01 11:06:48;;;;;;;58.33;40.72;;;588.90;2278.40;;;;;;5074976;28;20020;-79
2022/11/01 11:09:28;;;;;;;48.83;37.78;;;588.90;2380.80;;;;;;5074928;28;20485;-83
2022/11/01 11:11:58;;;;;;;58.38;41.03;;;588.90;2278.40;;;;;;5061144;28;20040;-78
2022/11/01 11:14:26;;;;;;;60.60;40.30;;;589.10;2227.20;;;;;;5075358;28;20107;-86
2022/11/01 11:16:55;;;;;;;54.38;37.97;;;588.90;2227.20;;;;;;5075268;28;20032;-81
2022/11/01 11:19:33;;;;;;;50.88;37.53;;;588.90;2201.60;;;;;;5075101;28;20141;-81
2022/11/01 11:22:00;;;;;;;58.65;41.03;;;;;;;;;;5074124;28;20051;-79
2022/11/01 11:24:31;;;;;;;53.80;39.65;;;589.20;2201.60;;;;;;5092772;28;20466;-78
2022/11/01 11:26:58;;;;;;;58.38;39.30;;;589.30;2201.60;;;;;;5074875;28;20035;-81
2022/11/01 11:29:26;;;;;;;53.75;39.85;;;589.40;2201.60;;;;;;5075125;28;20043;-81
2022/11/01 11:31:58;;;;;;;57.70;41.55;;;589.30;2150.40;;;;;;5074468;28;20028;-79
2022/11/01 11:34:32;;;;;;;55.40;40.95;;;589.20;2304.00;;;;;;5074495;28;20111;-79
2022/11/01 11:37:00;;;;;;;55.42;40.38;;;589.40;2150.40;;;;;;5075133;28;20028;-80
2022/11/01 11:39:35;;;;;;;57.15;39.92;;;589.50;2176.00;;;;;;5074611;28;20024;-86
2022/11/01 11:42:19;;;;;;;56.58;40.35;;;589.50;2150.40;;;;;;5092954;28;20158;-82
2022/11/01 11:44:50;;;;;;;57.47;39.72;;;589.50;2099.20;;;;;;5074271;28;20082;-78
2022/11/01 11:47:27;;;;;;;55.72;40.40;;;589.50;2201.60;;;;;;5073966;28;20024;-78
2022/11/01 11:49:55;;;;;;;53.83;37.75;;;589.30;2176.00;;;;;;5074057;28;20085;-80
2022/11/01 11:52:25;;;;;;;53.92;39.30;;;589.40;2099.20;;;;;;5073642;28;20074;-78
2022/11/01 11:54:51;;;;;;;63.65;39.63;;;589.40;2124.80;;;;;;5073833;28;20064;-77
2022/11/01 11:57:26;;;;;;;61.03;39.88;;;589.40;2150.40;;;;;;5073817;28;20028;-77
2022/11/01 11:59:59;;;;;;;64.10;44.60;;;589.40;2150.40;;;;;;5092093;28;20059;-78
2022/11/01 12:02:35;;;;;;;71.00;45.35;;;589.40;2201.60;;;;;;5092131;28;20027;-78
2022/11/01 12:05:05;;;;;;;55.38;42.88;;;589.30;2278.40;;;;;;5073572;28;20092;-79
2022/11/01 12:07:38;;;;;;;62.75;43.10;;;589.20;2252.80;;;;;;5073935;28;20021;-82
2022/11/01 12:10:06;;;;;;;60.40;41.83;;;589.20;2227.20;;;;;;5071235;28;20028;-80
2022/11/01 12:12:34;;;;;;;66.03;41.53;;;589.20;2227.20;;;;;;5077829;28;20036;-79
2022/11/01 12:15:03;;;;;;;73.53;42.53;;;589.10;2278.40;;;;;;5078211;28;20088;-81